Pattaya, Thailand

5:10 AM ICT on July 07, 2015 (GMT +0700)
Pattaya | | Change Station
CLOSE
Current Station
Personal Weather Station
Location: Pattaya, CHONBURI
Elevation: 141 ft
Nearby Weather Stations

Elev 141 ft 12.93 °N, 100.91 °E | Updated 0 second ago

Mostly Cloudy
Mostly Cloudy
83.8 °F
Feels Like 95 °F
N
1.0
Wind Variable Wind from SSW
Gusts 4.0 mph

Today
High -- | Low -- °F
--% Chance of Precip.
Yesterday
High -- | Low -- °F
Precip. -- in
5:55 AM 6:47 PM
Waning Gibbous, 72% visible
Pressure 29.65 in
Visibility 4.3 miles
Clouds Few 2000 ft
Mostly Cloudy 30000 ft
Heat Index 95 °F
Dew Point 78 °F
Humidity 84%
Rainfall 0.00 in
Snow Depth Not available.
UV 0 out of 12
Pollen Not available.
Air Quality Not available.
Flu Activity Not available.
METAR VTBU 062200Z 24004KT 7000 FEW020 BKN300 29/24 Q1004 A2967

More Conditions Fewer Conditions

Pressure 29.65 in
Visibility 4.3 miles
Clouds Few 2000 ft
Mostly Cloudy 30000 ft
Heat Index 95 °F
Dew Point 78 °F
Humidity 84%
Rainfall 0.00 in
Snow Depth Not available.
UV 0 out of 12
Pollen Not available.
Air Quality Not available.
Flu Activity Not available.
METAR VTBU 062200Z 24004KT 7000 FEW020 BKN300 29/24 Q1004 A2967

More Conditions Fewer Conditions

10-Day Weather Forecast

×

Almanac

Astronomy

Jul. 07, 2015 Rise Set
Actual Time
Civil Twilight
Nautical Twilight
Astronomical Twilight
Moon
Length of Visible Light
Length of Day
Tomorrow will be .
, % of the Moon is Illuminated

Today's Extremes

Country Highs Country Lows

Community

WunderPhotos

Upload Photos

1,835,664 photos uploaded!

WunderBlogs® & News

Nearby

Air Quality

  Air Quality AQ Index Pollutant
Not available.

Snow Depth

Station Depth Elevation

Earthquake Activity

City Distance Mag. Time & Date
Minimum magnitude displayed is 2.5.

Coastal Water Temperatures

Place Temperature

Stations

Nearby Weather Stations

Station Location Temp. Windchill Dew Point Humidity Wind Precip. Elev Updated Type